Strona główna
METAR-TAF:

METAR-TAF

Lotnisko :

Port lotniczy Rabat-Sala

Rabat, Maroko

Szerokość geograficzna: 34-03N, Długość geograficzna: 006-46W, wysokość: 84 m

Aktualna obserwacja pogody

Raport powstał 24 minut temu, godzina 23:30 UTC
Wiatr 2 kt z kierunków zmiennych
Temperatura 8°C
Wilgotność 93%
Ciśnienie 1019 hPa
Widzialność 10 km lub więcej
Brak chmur poniżej 1500 m i brak chmur cumulonimbus

METAR: GMME 192330Z VRB02KT CAVOK 08/07 Q1019 NOSIG

czas: 23:54 (23:54 UTC)

Prognoza

Raport powstał 6 godziny i 54 minut temu, godzina 17:00 UTC
Prognoza ważna od 19 godzina 18 UTC do 20 godzina 24 UTC
Wiatr 10 kt od południowy wschód
Widzialność: 8000 m
Rozproszone chmury na wysokości 1600 ft
Przejściowo
od 20 godzina 06 UTC do 20 godzina 17 UTC
Wiatr 6 kt od północ

TAF: GMME 191700Z 1918/2024 14010KT 8000 SCT016 TEMPO 2006/2017 36006KT

Obserwacja i prognoza pogody dla ponad 4000 lotnisk (raport METAR i TAF).

Dostępne stacje oznaczono żółtymi i czerwonymi punktami na mapie.

Najedź kursorem aby zobaczyć nazwę stacji.

Kliknij aby zobaczyć obserwacje i prognozy pogody.

Aby zmienić mapę: kliknij na zielony przycisk z czarnym krzyżykiem, aby powiększyć; na zielony przycisk z myślnikiem, aby pomniejszyć; na zielone strzałki, aby przejść do map sąsiednich.


METAR-TAF: